Date,TemperatureHighF,TemperatureAvgF,TemperatureLowF,DewpointHighF,DewpointAvgF,DewpointLowF,HumidityHigh,HumidityAvg,HumidityLow,PressureMaxIn,PressureMinIn,WindSpeedMaxMPH,WindSpeedAvgMPH,GustSpeedMaxMPH,PrecipitationSumIn
2012-1-1,59,50,42,25,21,15,49,33,20,30.65,30.21,8,4,13,0.00
2012-1-2,54,43,32,21,16,11,56,34,20,30.77,30.59,4,2,10,0.00
2012-1-3,60,44,27,24,19,15,65,40,24,30.62,30.21,7,3,15,0.00
2012-1-4,61,47,36,37,26,19,84,47,25,30.36,30.21,4,2,8,0.00
2012-1-5,70,49,30,33,28,22,82,48,20,30.36,30.09,3,1,6,0.00
2012-1-6,75,58,43,47,40,32,90,56,24,30.09,29.85,6,3,13,0.00
2012-1-7,58,51,44,50,34,28,88,54,38,30.06,29.91,5,2,10,0.00
2012-1-8,57,49,39,47,40,32,87,71,58,30.15,30.03,4,1,10,0.00
2012-1-9,51,45,43,46,42,38,97,90,72,30.21,30.00,5,4,11,1.47
2012-1-10,47,44,42,44,40,32,98,85,56,30.03,29.85,5,3,10,0.36
2012-1-11,67,49,34,42,34,23,96,59,34,30.03,29.65,10,3,18,0.00
2012-1-12,42,35,26,22,8,1,52,33,21,30.33,30.03,10,4,17,0.00
2012-1-13,60,41,26,24,17,9,59,39,22,30.33,30.21,4,1,10,0.00
2012-1-14,69,48,30,26,22,17,69,39,15,30.36,30.27,3,1,6,0.00
2012-1-15,65,52,36,48,31,23,69,45,27,30.33,30.12,7,5,17,0.00
2012-1-16,70,64,59,60,55,49,89,72,55,30.12,29.91,8,6,15,0.00
2012-1-17,65,51,38,62,32,11,94,51,29,30.39,29.94,7,4,13,0.00
2012-1-18,59,42,29,26,18,11,55,40,25,30.39,30.03,3,1,8,0.00
2012-1-19,74,56,40,37,31,25,77,44,18,30.00,29.85,4,2,9,0.00
2012-1-20,79,61,45,58,47,27,98,63,31,29.94,29.71,6,4,13,0.00
2012-1-21,52,44,36,36,25,20,78,49,32,30.12,29.88,6,3,11,0.00
2012-1-22,81,60,41,55,38,19,98,57,12,30.00,29.65,7,4,16,0.00
2012-1-23,63,51,41,29,26,20,56,38,24,30.18,30.00,4,1,8,0.00
2012-1-24,68,52,39,54,36,24,98,60,26,30.09,29.88,4,2,11,1.41
2012-1-25,52,49,48,52,46,42,98,89,76,30.00,29.85,7,4,14,2.94
2012-1-26,61,51,45,47,36,28,98,61,30,30.09,29.88,6,3,11,0.24
2012-1-27,68,52,36,42,34,23,92,55,32,30.21,29.88,8,4,17,0.00
2012-1-28,52,45,35,24,18,15,54,34,26,30.50,30.21,6,3,13,0.00
2012-1-29,64,45,30,26,23,18,74,45,23,30.50,30.30,5,2,10,0.00
2012-1-30,69,56,42,52,38,25,72,52,33,30.30,30.09,8,4,15,0.00
2012-1-31,79,65,58,57,53,46,92,67,32,30.15,30.00,6,4,13,0.00
2012-2-1,76,62,53,62,50,40,98,71,32,30.18,30.06,3,1,8,0.00
2012-2-2,75,61,48,61,52,47,98,77,43,30.18,30.00,4,2,11,0.00
2012-2-3,75,67,56,68,58,38,98,76,43,30.06,29.91,7,4,13,0.00
2012-2-4,57,50,44,40,30,24,61,47,36,30.33,30.09,7,6,13,0.00
2012-2-5,48,42,36,29,25,23,71,50,40,30.44,30.33,6,4,12,0.00
2012-2-6,56,45,34,33,28,26,81,56,35,30.39,30.18,3,1,8,0.00
2012-2-7,63,53,46,35,32,30,64,47,32,30.39,30.21,4,1,6,0.00
2012-2-8,47,43,40,35,30,26,76,59,47,30.53,30.39,5,2,9,0.00
2012-2-9,61,47,33,39,32,28,87,58,35,30.39,30.12,4,1,11,0.00
2012-2-10,59,49,36,46,34,19,90,58,31,30.41,30.09,6,4,13,0.08
2012-2-11,39,33,29,19,10,4,55,38,29,30.62,30.41,7,4,13,0.00
2012-2-12,45,35,28,31,13,5,86,42,28,30.65,30.24,4,2,10,0.04
2012-2-13,49,42,35,46,38,29,97,85,74,30.24,29.85,4,2,8,0.12
2012-2-14,70,54,46,52,47,42,98,80,36,30.00,29.85,4,2,10,0.00
2012-2-15,77,62,54,63,40,15,98,55,15,30.09,29.88,4,2,10,0.00
2012-2-16,56,50,43,40,35,27,76,58,32,30.33,30.09,6,3,10,0.00
2012-2-17,65,54,48,49,40,34,88,62,34,30.18,30.03,3,1,7,0.04
2012-2-18,54,49,46,49,45,40,98,86,60,30.09,29.91,5,3,13,1.90
2012-2-19,58,48,40,42,38,33,92,70,39,0.00,40.00,5,2,9,0.00
2012-2-20,66,53,42,100,39,13,94,63,16,29.59,29.35,8,4,19,0.00
2012-2-21,72,55,34,51,33,20,78,47,19,29.62,29.35,5,2,12,0.00
2012-2-22,81,66,55,56,37,19,94,45,12,29.35,29.03,5,3,11,0.00
2012-2-23,86,67,53,33,26,21,44,24,11,29.35,28.91,8,4,15,0.00
2012-2-24,59,51,41,20,14,7,29,23,14,29.82,29.35,7,4,13,0.00
2012-2-25,69,49,30,26,18,10,66,33,15,29.85,29.62,6,2,13,0.00
2012-2-26,68,53,38,44,33,19,74,48,30,29.65,29.47,8,4,15,0.00
2012-2-27,73,62,52,48,44,40,74,55,32,29.76,29.62,3,1,8,0.00
2012-2-28,75,66,60,60,55,46,85,67,50,29.62,29.32,8,4,15,0.00
2012-2-29,79,67,50,64,31,15,90,33,13,29.50,29.38,5,2,13,0.00
2012-3-1,87,64,45,64,44,26,89,52,19,29.41,29.09,6,3,13,0.00
2012-3-2,68,62,53,65,39,23,95,48,23,29.41,29.06,7,4,12,0.00
2012-3-3,62,52,41,29,21,16,54,32,19,29.62,29.41,4,2,10,0.00
2012-3-4,77,56,34,32,22,14,67,32,13,29.65,29.56,4,1,10,0.00
2012-3-5,82,61,42,35,28,20,60,32,12,29.76,29.65,7,3,15,0.00
2012-3-6,73,63,51,49,42,33,85,51,32,29.65,29.41,9,6,21,0.00
2012-3-7,70,67,64,60,55,49,77,66,54,29.44,29.35,8,5,19,0.00
2012-3-8,73,59,44,68,50,27,94,75,52,29.79,29.35,8,5,16,0.04
2012-3-9,52,47,42,27,22,20,53,39,28,29.94,29.79,6,4,14,0.00
2012-3-10,52,50,48,49,36,21,97,63,30,29.79,29.53,3,1,10,1.00
2012-3-11,68,56,50,53,48,42,98,78,40,29.53,29.38,4,1,8,0.16
2012-3-12,83,65,52,59,51,44,98,69,26,29.53,29.41,6,4,11,0.00
2012-3-13,79,69,62,64,60,52,98,75,41,29.59,29.47,6,4,11,0.00
2012-3-14,80,72,67,63,58,53,86,65,40,29.59,29.47,6,4,12,0.00
2012-3-15,83,72,66,62,58,53,86,64,36,29.59,29.50,7,4,14,0.00
2012-3-16,83,72,66,64,58,51,90,64,34,29.56,29.44,7,4,15,0.00
2012-3-17,82,72,65,61,55,48,83,57,32,29.50,29.38,8,5,15,0.00
2012-3-18,76,70,66,61,58,53,83,65,49,29.44,29.29,8,5,17,0.00
2012-3-19,81,70,58,62,56,42,98,65,33,29.32,29.06,11,6,23,1.81
2012-3-20,69,59,52,58,48,41,98,69,41,29.29,29.12,5,2,12,1.98
2012-3-21,68,58,50,49,37,27,88,49,23,29.29,29.20,6,3,12,0.00
2012-3-22,78,58,49,50,41,33,88,58,21,29.44,29.23,8,2,14,0.16
2012-3-23,78,61,43,47,38,32,89,50,20,29.50,29.41,2,0,6,0.00
2012-3-24,85,67,50,51,45,42,85,51,24,29.53,29.41,3,1,8,0.00
2012-3-25,88,71,57,55,47,39,83,49,20,29.56,29.44,3,0,8,0.00
2012-3-26,88,71,57,52,47,42,69,46,21,29.53,29.38,4,2,12,0.00
2012-3-27,83,70,58,56,49,39,85,51,24,29.53,29.41,7,3,13,0.00
2012-3-28,82,69,62,60,56,50,85,64,39,29.50,29.38,4,3,11,0.00
2012-3-29,83,70,60,68,59,51,98,73,34,29.41,29.26,4,2,9,0.00
2012-3-30,88,74,67,68,62,55,95,71,34,29.32,29.20,5,2,11,0.00
2012-3-31,89,74,63,69,60,53,98,68,31,29.32,29.20,5,2,13,0.00
2012-4-1,90,77,68,66,60,52,90,61,28,29.23,29.09,6,5,13,0.00
2012-4-2,88,75,68,64,58,47,85,59,28,29.17,29.03,7,4,17,0.00
2012-4-3,79,69,61,66,62,58,95,80,54,29.29,29.12,4,2,10,0.51
2012-4-4,79,66,57,61,50,36,98,63,23,29.38,29.20,4,1,8,0.00
2012-4-5,79,66,54,49,42,37,80,45,23,29.38,29.23,4,2,8,0.00
2012-4-6,82,68,55,52,47,43,81,51,27,29.50,29.38,3,1,8,0.00
2012-4-7,87,73,60,62,53,48,85,52,29,29.65,29.47,6,2,11,0.00
2012-4-8,74,67,60,62,58,54,92,74,51,29.71,29.62,5,1,12,0.71
2012-4-9,80,67,59,65,58,52,98,78,40,29.65,29.50,3,0,8,0.00
2012-4-10,88,73,61,64,55,47,93,59,26,29.56,29.47,4,1,10,0.00
2012-4-11,87,72,61,60,54,43,85,56,24,29.56,29.44,4,2,10,0.00
2012-4-12,83,72,63,61,55,48,92,59,31,29.50,29.35,6,4,14,0.00
2012-4-13,82,73,65,60,57,52,80,58,39,29.44,29.29,7,5,15,0.00
2012-4-14,82,75,70,62,59,56,74,58,42,29.32,29.14,9,6,17,0.00
2012-4-15,76,69,57,65,52,34,77,56,25,29.35,29.06,9,4,21,0.08
2012-4-16,76,64,54,49,37,33,79,39,23,29.62,29.35,4,2,13,0.00
2012-4-17,80,66,52,49,41,34,81,46,20,29.71,29.59,2,1,9,0.00
2012-4-18,84,68,51,51,44,37,81,45,22,29.62,29.44,5,2,13,0.00
2012-4-19,84,70,54,49,41,37,73,38,20,29.44,29.17,8,4,15,0.00
2012-4-20,70,65,58,62,49,36,89,58,34,29.50,29.14,6,4,15,0.16
2012-4-21,76,62,48,41,36,31,75,40,20,29.53,29.41,4,2,9,0.00
2012-4-22,83,68,51,47,36,26,75,36,17,29.62,29.47,6,2,14,0.00
2012-4-23,75,64,50,36,30,20,55,29,13,29.71,29.50,3,1,10,0.00
2012-4-24,89,71,50,47,39,35,63,35,19,29.50,29.26,6,3,15,0.00
2012-4-25,90,77,64,58,54,47,78,46,28,29.32,29.14,8,6,18,0.00
2012-4-26,92,79,67,62,57,49,85,50,27,29.29,29.17,6,5,13,0.00
2012-4-27,91,78,67,62,53,43,77,47,20,29.26,29.14,7,6,17,0.00
2012-4-28,90,78,67,59,53,48,74,46,24,29.32,29.20,7,6,15,0.00
2012-4-29,89,77,68,62,54,41,77,48,20,29.44,29.29,6,4,12,0.00
2012-4-30,87,77,70,66,59,50,84,55,30,29.44,29.29,7,4,14,0.00
2012-5-1,89,78,69,63,56,50,81,51,29,29.38,29.23,8,6,15,0.00
2012-5-2,88,77,70,63,57,51,79,53,29,29.35,29.23,6,4,14,0.00
2012-5-3,94,81,68,68,58,52,90,50,26,29.38,29.26,5,3,11,0.00
2012-5-4,97,81,70,65,58,46,80,49,21,29.38,29.26,11,4,22,0.12
2012-5-5,95,81,64,63,57,49,79,47,27,29.38,29.20,6,3,13,0.00
2012-5-6,93,81,72,67,57,44,84,48,20,29.35,29.20,6,4,13,0.00
2012-5-7,90,78,68,64,57,49,80,50,25,29.38,29.23,7,3,13,0.16
2012-5-8,73,69,68,63,54,45,83,60,42,29.47,29.38,6,3,11,0.00
2012-5-9,84,73,65,48,39,31,53,32,16,29.53,29.38,4,2,10,0.00
2012-5-10,82,71,58,48,42,36,60,37,20,29.41,29.26,5,2,11,0.00
2012-5-11,79,69,62,64,57,48,93,68,35,29.41,29.20,6,1,13,0.68
2012-5-12,72,67,63,64,56,48,97,71,42,29.59,29.44,5,2,10,0.08
2012-5-13,84,72,60,56,48,38,82,49,21,29.65,29.50,4,2,8,0.00
2012-5-14,84,73,62,55,47,38,76,43,21,29.56,29.44,4,1,10,0.00
2012-5-15,85,75,66,54,44,32,67,37,16,29.53,29.44,3,1,8,0.00
2012-5-16,92,75,58,61,46,33,88,43,14,29.53,29.41,2,0,8,0.00
2012-5-17,93,77,60,60,46,35,88,40,14,29.47,29.32,4,2,9,0.00
2012-5-18,91,78,63,58,46,37,79,38,18,29.38,29.26,7,4,15,0.00
2012-5-19,91,78,67,62,50,43,82,42,20,29.41,29.29,8,5,15,0.00
2012-5-20,92,79,68,58,50,41,68,40,18,29.59,29.38,5,2,14,0.00
2012-5-21,89,78,66,54,48,39,62,38,19,29.62,29.47,3,1,8,0.00
2012-5-22,96,81,67,53,46,42,52,32,17,29.50,29.26,3,1,8,0.00
2012-5-23,93,82,69,56,52,47,57,37,22,29.26,29.03,8,5,17,0.00
2012-5-24,96,83,72,61,57,51,68,44,23,29.17,29.03,9,7,19,0.00
2012-5-25,96,84,72,63,58,52,74,44,23,29.38,29.17,7,6,15,0.00
2012-5-26,95,84,73,64,55,44,71,42,19,29.47,29.35,6,4,15,0.00
2012-5-27,95,82,70,67,52,40,87,40,17,29.44,29.29,7,5,14,0.00
2012-5-28,99,84,69,65,55,48,87,42,19,29.41,29.20,7,4,20,0.12
2012-5-29,100,83,68,64,57,46,85,47,18,29.41,29.20,7,2,15,0.00
2012-5-30,93,82,68,58,51,43,67,37,19,29.44,29.14,7,4,15,0.00
2012-5-31,84,74,66,63,53,37,86,54,25,29.41,29.12,5,3,13,1.19
2012-6-1,89,75,60,45,40,36,55,30,16,29.47,29.32,3,1,8,0.00
2012-6-2,98,83,69,57,49,41,54,33,16,29.38,29.23,6,3,12,0.00
2012-6-3,97,84,74,64,56,44,70,42,17,29.35,29.23,7,5,17,0.00
2012-6-4,98,83,72,66,60,54,82,48,26,29.38,29.20,6,3,13,0.00
2012-6-5,98,85,74,62,53,44,63,37,17,29.32,29.14,4,1,11,0.00
2012-6-6,98,80,69,67,61,48,89,57,19,29.35,29.20,4,2,10,0.71
2012-6-7,78,71,67,66,61,55,92,72,48,29.44,29.32,4,2,10,0.20
2012-6-8,88,77,70,60,52,43,65,45,21,29.44,29.29,3,1,9,0.00
2012-6-9,95,81,68,67,57,51,87,48,24,29.32,29.14,4,1,10,0.00
2012-6-10,95,84,73,65,58,52,76,45,26,29.23,29.14,6,4,14,0.00
2012-6-11,100,87,76,70,61,48,82,46,18,29.38,29.20,7,5,16,0.00
2012-6-12,91,81,70,64,53,44,71,39,24,29.53,29.32,4,2,13,0.00
2012-6-13,94,78,68,64,60,54,81,56,28,29.53,29.29,4,2,11,0.00
2012-6-14,97,85,76,69,60,49,79,46,20,29.38,29.29,5,3,12,0.00
2012-6-15,96,83,70,74,61,54,94,53,27,29.44,29.32,7,3,13,0.47
2012-6-16,96,84,73,68,60,50,76,47,21,29.50,29.38,5,3,10,0.00
2012-6-17,95,81,70,67,60,54,85,54,26,29.47,29.26,5,2,11,0.00
2012-6-18,94,84,73,65,56,49,73,43,23,29.29,29.20,6,3,11,0.00
2012-6-19,94,81,73,67,61,51,81,54,24,29.35,29.26,7,5,14,0.00
2012-6-20,94,82,74,67,60,50,73,50,23,29.41,29.32,6,4,15,0.00
2012-6-21,97,83,71,72,58,44,91,48,17,29.50,29.35,3,1,6,0.00
2012-6-22,100,85,71,62,53,44,68,36,16,29.44,29.26,2,0,9,0.00
2012-6-23,101,87,75,65,53,43,66,35,15,29.38,29.29,3,1,8,0.00
2012-6-24,102,87,70,59,51,38,65,34,12,29.44,29.32,2,0,6,0.00
2012-6-25,105,88,71,62,50,35,68,32,11,29.38,29.23,2,0,7,0.00
2012-6-26,106,91,74,61,51,40,63,31,11,29.29,29.17,3,1,9,0.00
2012-6-27,104,91,80,63,52,31,54,30,11,29.38,29.23,3,1,9,0.00
2012-6-28,102,89,76,59,49,38,55,29,12,29.50,29.35,5,3,11,0.00
2012-6-29,101,89,76,64,53,42,65,33,15,29.47,29.32,4,3,10,0.00
2012-6-30,100,87,74,65,56,44,69,40,16,29.38,29.26,6,3,12,0.00
2012-7-1,98,82,74,68,60,47,79,50,19,29.44,29.35,7,3,13,0.04
2012-7-2,94,84,75,68,58,49,75,45,23,29.53,29.38,6,4,12,0.00
2012-7-3,99,87,75,62,52,44,60,33,16,29.50,29.35,5,4,13,0.00
2012-7-4,101,87,73,63,54,43,68,36,15,29.47,29.35,6,4,13,0.00
2012-7-5,100,88,74,66,53,41,77,35,16,29.47,29.38,5,3,10,0.00
2012-7-6,102,88,73,60,50,38,61,30,12,29.50,29.35,3,2,9,0.00
2012-7-7,104,84,74,64,55,41,69,40,12,29.50,29.38,8,2,20,0.00
2012-7-8,99,84,72,68,60,45,82,51,16,29.47,29.35,6,2,14,0.00
2012-7-9,96,84,75,70,60,46,85,52,19,29.44,29.29,4,2,12,0.00
2012-7-10,93,81,73,71,62,51,87,56,25,29.41,29.32,5,1,11,0.00
2012-7-11,96,83,73,68,57,39,77,47,16,29.44,29.29,4,2,10,0.00
2012-7-12,95,84,73,68,58,44,84,48,17,29.41,29.32,4,2,11,0.00
2012-7-13,96,84,72,68,57,44,76,44,18,29.44,29.35,4,2,10,0.00
2012-7-14,96,84,73,72,57,43,84,47,17,29.50,29.35,4,1,15,0.04
2012-7-15,95,78,72,66,60,47,79,57,21,29.47,29.35,6,1,12,0.00
2012-7-16,98,83,70,67,59,45,87,50,17,29.47,29.32,5,3,13,0.00
2012-7-17,100,86,73,69,57,45,83,43,16,29.44,29.32,5,3,12,0.00
2012-7-18,100,87,74,71,57,44,86,42,16,29.47,29.35,4,3,10,0.00
2012-7-19,104,89,73,66,53,40,72,34,12,29.56,29.38,4,2,9,0.00
2012-7-20,108,88,75,65,54,40,67,36,11,29.50,29.38,7,2,14,0.12
2012-7-21,107,88,74,64,54,38,69,38,11,29.44,29.29,5,1,13,0.00
2012-7-22,103,89,78,63,54,44,59,34,14,29.47,29.35,6,3,11,0.00
2012-7-23,100,88,75,66,53,43,68,35,15,29.53,29.41,4,3,10,0.00
2012-7-24,101,87,74,66,55,43,74,37,15,29.53,29.35,5,4,11,0.00
2012-7-25,103,90,77,66,55,44,69,35,15,29.41,29.26,6,5,13,0.00
2012-7-26,103,89,77,64,55,45,64,35,15,29.38,29.26,6,4,13,0.00
2012-7-27,101,88,77,65,55,38,64,36,12,29.47,29.35,4,3,11,0.00
2012-7-28,105,89,76,63,52,38,63,32,12,29.56,29.44,3,2,8,0.00
2012-7-29,105,85,71,56,46,32,57,29,11,29.53,29.38,3,1,8,0.00
2012-7-30,106,94,74,58,44,31,56,21,9,29.47,29.32,8,3,10,0.00
2012-7-31,108,92,75,63,49,33,66,28,8,29.44,29.29,7,3,9,0.00
2012-8-1,109,93,79,60,48,33,53,25,8,29.41,29.23,8,4,13,0.00
2012-8-2,108,93,77,56,45,32,47,23,8,29.32,29.21,11,4,12,0.00
2012-8-3,105,91,76,58,49,33,52,27,9,29.32,29.23,10,5,13,0.00
2012-8-4,104,88,77,64,53,39,62,35,12,29.95,29.29,8,5,13,0.00
2012-8-5,103,91,76,63,51,39,62,29,12,30.07,29.92,6,2,10,0.08
2012-8-6,106,90,78,60,51,39,52,30,12,30.07,29.89,6,2,8,0.00
2012-8-7,106,91,76,57,48,33,49,26,9,29.95,29.83,7,2,9,0.00
2012-8-8,100,88,79,60,53,44,48,32,16,29.98,29.83,9,2,11,0.00
2012-8-9,108,91,74,68,51,33,76,35,8,29.95,29.74,6,2,12,0.00
2012-8-10,98,89,79,54,43,26,42,22,9,29.89,29.80,8,3,12,0.00
2012-8-11,100,85,72,42,36,24,33,20,8,29.95,29.83,4,1,8,0.00
2012-8-12,105,88,73,60,47,39,50,27,12,29.92,29.77,12,3,15,0.08
2012-8-13,103,89,77,62,44,26,60,27,7,29.95,29.86,9,2,11,0.00
2012-8-14,106,86,76,65,46,35,68,27,9,29.92,29.77,8,2,11,0.00
2012-8-15,99,86,70,73,58,43,94,44,16,29.89,29.77,6,2,8,1.10
2012-8-16,92,84,77,64,55,50,65,38,24,30.01,29.83,8,3,10,0.00
2012-8-17,101,88,74,65,55,44,67,37,15,29.98,29.80,6,1,8,0.00
2012-8-18,90,77,68,67,59,51,95,57,33,29.95,29.80,9,3,14,1.34
2012-8-19,92,79,68,67,52,30,93,49,12,29.95,29.80,6,1,8,0.00
2012-8-20,92,80,68,56,44,32,66,31,12,29.98,29.86,7,2,11,0.00
2012-8-21,77,72,67,63,55,42,80,59,31,30.07,29.89,4,1,6,0.20
2012-8-22,93,78,65,68,52,40,93,50,17,30.07,29.92,4,1,8,0.00
2012-8-23,95,82,67,65,50,36,82,37,14,30.01,29.86,6,2,10,0.00
2012-8-24,97,84,71,67,55,42,80,42,16,29.92,29.77,6,3,10,0.00
2012-8-25,97,85,77,66,56,44,66,40,17,29.86,29.77,10,5,13,0.00
2012-8-26,89,78,73,69,65,58,79,65,35,30.01,29.86,6,2,10,0.08
2012-8-27,96,84,73,73,59,42,88,51,17,30.04,29.86,6,1,9,0.16
2012-8-28,94,84,76,64,58,46,66,43,25,29.95,29.80,8,2,10,0.00
2012-8-29,95,84,71,47,42,37,42,25,14,29.89,29.71,8,3,13,0.00
2012-8-30,97,86,74,52,44,38,42,24,14,29.77,29.65,10,3,12,0.00
2012-8-31,104,88,78,59,50,35,49,29,10,29.89,29.74,6,1,8,0.00
2012-9-1,103,89,76,65,53,41,67,33,14,30.01,29.89,8,4,10,0.00
2012-9-2,104,89,76,64,52,39,67,33,12,29.98,29.83,9,4,10,0.00
2012-9-3,104,89,75,58,48,33,54,28,9,29.95,29.80,8,3,11,0.00
2012-9-4,104,89,76,63,50,33,62,31,9,29.92,29.77,8,3,12,0.00
2012-9-5,105,90,76,59,47,33,55,26,9,29.86,29.74,6,3,9,0.00
2012-9-6,104,90,75,55,44,32,48,23,9,29.89,29.77,6,2,8,0.00
2012-9-7,106,91,77,55,44,32,46,23,9,29.86,29.71,9,4,13,0.00
2012-9-8,85,76,68,54,37,22,61,28,11,30.10,29.86,14,5,17,0.00
2012-9-9,89,74,55,45,32,22,62,26,10,30.13,30.01,5,1,10,0.00
2012-9-10,95,77,58,44,34,23,53,26,9,30.10,29.95,5,1,8,0.00
2012-9-11,93,78,63,44,37,27,46,25,11,30.07,29.92,8,2,11,0.00
2012-9-12,95,81,67,57,47,36,67,35,14,30.04,29.89,6,2,9,0.00
2012-9-13,86,78,70,67,55,43,76,48,23,30.13,29.95,8,3,14,0.00
2012-9-14,70,68,65,58,54,49,73,63,47,30.19,30.10,8,4,9,0.00
2012-9-15,80,69,64,55,50,44,74,53,30,30.19,30.04,5,2,8,0.00
2012-9-16,70,67,65,65,59,50,92,75,52,30.10,29.95,3,0,4,0.39
2012-9-17,84,74,67,68,56,44,96,61,25,29.95,29.77,5,1,9,0.00
2012-9-18,83,72,62,58,42,20,80,42,11,30.07,29.86,8,2,10,0.00
2012-9-19,91,72,55,49,34,23,56,30,10,30.10,29.95,6,2,10,0.00
2012-9-20,96,78,60,47,40,31,53,29,11,30.01,29.89,8,3,10,0.00
2012-9-21,98,80,61,50,38,25,60,27,8,29.95,29.86,6,3,10,0.00
2012-9-22,99,79,60,49,38,23,60,29,8,30.07,29.92,4,1,8,0.00
2012-9-23,98,80,62,52,42,29,63,31,11,30.16,30.01,5,1,8,0.00
2012-9-24,98,83,69,58,44,25,65,31,9,30.10,29.92,10,4,12,0.00
2012-9-25,96,83,72,62,46,30,71,34,11,29.98,29.83,16,6,17,0.00
2012-9-26,95,82,72,64,49,32,74,36,12,30.01,29.89,10,4,14,0.00
2012-9-27,94,81,72,63,50,36,70,38,14,30.07,29.95,6,2,10,0.00
2012-9-28,89,78,68,58,52,43,66,43,21,30.04,29.92,6,2,9,0.00
2012-9-29,74,69,66,67,62,55,97,80,57,29.95,29.77,9,3,11,3.43
2012-9-30,73,67,60,64,52,37,93,63,28,29.86,29.80,8,4,12,0.08
2012-10-1,83,70,56,60,42,27,96,45,14,29.86,29.77,8,2,11,0.00
2012-10-2,80,70,62,46,40,34,54,36,21,29.95,29.83,6,2,7,0.00
2012-10-3,87,70,57,52,41,27,75,42,13,29.98,29.89,10,3,11,0.00
2012-10-4,87,75,62,55,51,42,71,45,30,30.07,29.98,8,3,13,0.00
2012-10-5,88,74,59,62,51,39,70,45,24,30.07,29.95,10,3,12,0.00
2012-10-6,59,54,48,39,35,29,57,49,41,30.22,30.07,7,4,10,0.00
2012-10-7,54,50,48,29,24,20,46,36,27,30.27,30.16,8,3,9,0.00
2012-10-8,70,54,38,34,28,24,69,38,19,30.25,30.01,4,1,6,0.00
2012-10-9,83,66,52,56,46,34,73,50,27,30.04,29.80,10,4,16,0.00
2012-10-10,73,68,61,65,57,54,89,68,53,30.10,29.92,8,2,9,0.00
2012-10-11,89,74,65,70,60,51,91,65,28,30.13,30.01,8,2,11,0.00
2012-10-12,90,77,70,67,58,48,84,55,25,30.13,30.01,7,4,10,0.00
2012-10-13,84,76,70,65,59,53,75,58,35,30.04,29.77,13,7,15,0.00
2012-10-14,82,72,60,67,44,27,93,43,14,30.07,29.83,8,2,14,0.83
2012-10-15,86,68,52,50,38,27,76,39,13,30.10,29.92,3,0,5,0.00
2012-10-16,77,66,58,60,45,39,83,49,29,29.95,29.65,11,4,13,0.00
2012-10-17,88,75,64,61,44,24,82,43,13,29.77,29.54,11,5,15,0.00
2012-10-18,76,65,52,34,22,16,37,21,13,29.98,29.74,7,2,9,0.00
2012-10-19,78,61,45,36,25,16,57,30,13,30.01,29.86,5,1,9,0.00
2012-10-20,88,70,52,61,41,23,63,36,22,29.89,29.71,11,4,16,0.00
2012-10-21,91,80,73,63,56,48,69,47,24,29.86,29.74,13,6,15,0.00
2012-10-22,87,76,71,65,58,42,76,56,23,29.95,29.83,10,5,15,0.00
2012-10-23,87,76,70,62,55,49,75,51,28,29.92,29.83,10,5,13,0.00
2012-10-24,86,73,68,63,56,45,83,59,24,29.95,29.83,11,5,16,0.00
2012-10-26,57,51,47,28,23,18,41,33,27,30.27,30.19,10,5,14,0.00
2012-10-27,58,48,37,24,18,11,51,32,17,30.30,30.13,8,3,10,0.00
2012-10-28,64,49,36,25,18,10,61,33,16,30.27,30.13,6,2,10,0.00
2012-10-29,72,53,36,32,21,13,65,33,14,30.27,30.10,4,0,7,0.00
2012-10-30,80,60,41,33,25,19,50,30,12,30.10,29.92,6,2,10,0.00
2012-10-31,83,64,49,44,32,22,74,36,11,30.01,29.92,6,1,6,0.00
2012-11-1,91,68,49,39,33,22,60,32,10,30.04,29.89,6,1,8,0.00
2012-11-2,90,71,52,48,38,23,70,35,10,29.98,29.86,6,3,12,0.00
2012-11-3,87,72,59,62,47,37,85,45,20,30.10,29.95,8,2,9,0.00
2012-11-4,75,64,55,46,31,25,53,31,16,30.13,30.04,6,1,6,0.00
2012-11-5,76,62,50,41,28,15,64,33,13,30.10,29.98,9,2,10,0.00
2012-11-6,76,59,45,36,28,20,61,34,13,30.19,30.04,4,1,5,0.00
2012-11-7,76,61,46,39,28,19,66,34,13,30.22,30.07,4,1,6,0.00
2012-11-8,83,68,54,46,36,24,46,33,19,30.13,29.98,14,5,14,0.00
2012-11-9,84,72,63,54,44,35,72,40,19,30.04,29.92,12,7,16,0.00
2012-11-10,82,72,64,54,47,38,71,44,22,30.01,29.83,13,7,20,0.00
2012-11-11,75,64,44,54,44,23,58,49,33,30.30,29.77,15,5,17,0.00
2012-11-12,56,45,35,24,13,5,53,30,15,30.51,30.30,6,2,9,0.00
2012-11-13,61,47,31,26,15,10,61,31,16,30.54,30.36,6,1,7,0.00
2012-11-14,65,51,38,26,17,11,50,28,15,30.45,30.30,4,1,6,0.00
2012-11-15,66,51,36,24,19,14,50,30,15,30.36,30.25,6,1,7,0.00
2012-11-16,66,50,37,28,20,12,56,33,15,30.45,30.33,6,1,6,0.00
2012-11-17,69,51,35,26,19,13,55,32,15,30.45,30.30,5,1,7,0.00
2012-11-18,72,56,42,30,23,18,56,30,16,30.33,30.22,8,3,8,0.00
2012-11-19,74,63,54,43,35,20,55,37,25,30.27,30.16,9,4,9,0.00
2012-11-20,81,64,52,51,41,32,79,47,19,30.27,30.16,4,2,4,0.00
2012-11-21,84,63,48,50,35,23,80,43,11,30.33,30.19,6,1,6,0.00
2012-11-22,79,64,52,42,37,32,55,38,21,30.51,30.10,0,0,2,0.00
2012-11-23,66,58,46,48,23,7,73,30,13,31.51,30.51,9,2,9,0.00
2012-11-24,64,48,34,19,11,4,45,23,13,31.51,31.51,5,2,6,0.00
2012-11-25,77,59,42,43,24,9,49,26,15,31.51,31.51,10,4,13,0.00
2012-11-26,75,62,50,59,41,22,94,52,16,31.51,31.51,11,4,13,0.00
2012-11-27,52,45,35,28,24,15,68,45,30,31.51,31.51,6,1,8,0.00
2012-11-28,69,49,33,39,26,19,79,47,17,31.51,31.51,6,2,10,0.00
2012-11-29,71,56,41,41,30,21,70,40,17,31.51,31.51,10,4,13,0.00
2012-11-30,77,65,54,55,48,41,86,56,30,31.51,31.51,11,4,13,0.00
2012-12-1,83,71,63,63,51,40,92,55,22,31.51,31.51,13,6,17,0.00
2012-12-2,83,71,65,61,50,41,81,51,23,31.51,31.51,9,5,12,0.00
2012-12-3,81,70,64,56,48,38,75,48,22,31.51,31.51,13,5,15,0.00
2012-12-4,71,63,53,52,30,8,73,33,14,31.51,31.51,9,4,13,0.00
2012-12-5,67,54,42,40,26,9,70,36,18,31.51,31.51,5,1,6,0.00
2012-12-6,71,59,48,53,41,32,97,57,25,31.51,31.51,10,4,13,0.00
2012-12-7,75,61,50,50,40,30,81,50,22,31.51,31.51,8,2,9,0.00
2012-12-8,75,61,53,58,43,35,82,53,30,31.51,31.51,4,2,8,0.00
2012-12-9,69,59,39,63,43,3,94,58,21,31.51,31.51,11,5,15,0.00
2012-12-10,44,37,30,14,5,0,50,27,20,31.51,31.51,11,4,14,0.00
2012-12-11,51,36,23,11,5,-3,55,30,16,31.51,31.51,4,0,6,0.00
2012-12-12,61,42,26,20,9,3,43,28,14,31.51,31.51,8,2,10,0.00
2012-12-13,67,49,32,21,15,8,57,27,15,31.51,31.51,9,3,12,0.00
2012-12-14,61,57,49,58,36,16,90,49,23,31.51,31.51,11,4,11,0.35
2012-12-15,75,61,51,58,34,18,91,43,13,31.51,31.51,6,2,6,0.00
2012-12-16,74,61,50,37,26,13,51,29,13,31.51,31.51,5,1,8,0.00
2012-12-17,63,52,43,28,23,16,54,34,19,31.51,31.51,8,2,8,0.00
2012-12-18,81,58,38,35,22,11,51,29,12,31.51,31.51,5,2,10,0.00
2012-12-19,78,68,58,58,45,9,80,48,13,31.51,31.51,13,6,19,0.08
2012-12-20,58,45,36,10,4,-2,29,18,15,31.51,31.51,13,5,19,0.00
2012-12-21,68,45,25,16,6,-5,41,22,12,31.51,31.51,6,2,8,0.00
2012-12-22,70,51,31,34,17,0,42,26,17,31.51,31.16,10,4,15,0.00
2012-12-23,66,57,45,48,26,7,80,36,13,31.51,29.77,6,2,9,0.00
2012-12-24,56,44,33,17,14,11,43,30,20,31.51,20.41,6,2,9,0.00
2012-12-25,47,37,28,44,26,11,91,66,31,23.45,18.23,13,5,15,0.94
2012-12-26,34,27,22,14,9,5,60,46,40,18.64,18.23,10,4,15,0.04
2012-12-27,47,36,24,39,24,13,85,63,40,18.23,18.23,6,2,8,0.00
2012-12-28,43,38,30,41,29,12,100,72,39,18.23,18.23,10,4,13,0.00
2012-12-29,46,34,25,13,10,7,57,39,22,31.01,18.23,6,2,8,0.00
2012-12-30,50,39,28,21,13,8,54,37,19,30.40,30.29,8,3,9,0.00
2012-12-31,50,45,38,49,39,15,100,82,33,30.29,30.04,6,2,9,0.16
2013-1-1,47,41,36,38,27,16,74,59,45,30.07,30.07,8,4,10,0.04